Flight Track Log - Related Links

Times and Time Zones

All times are in EDT time to prevent confusion due to time zone crossing. See the EJA312 flight status page for this flight to view local times or setup timezone preferences in your user account.

Time Position Orientation Groundspeed Altitude Reporting Facility
EDT Latitude Longitude Course Direction KTS MPH feet Rate Location/Type
Fri 09:07:55 PM 35.3956 -80.7089 21° North 169 194 1,400  Level Atlanta Center
Fri 09:08:53 PM 35.4431 -80.6867 21° North 187 215 4,000 2,754 Climbing Atlanta Center
Fri 09:08:56 PM 35.4431 -80.6892 270° West 182 209 4,200 1,500 Climbing Atlanta Center
Fri 09:09:53 PM 35.4411 -80.6153 92° East 224 258 5,500 1,377 Climbing Atlanta Center
Fri 09:09:57 PM 35.4431 -80.6178 314° West 231 266 5,600 2,100 Climbing Atlanta Center
Fri 09:10:53 PM 35.4158 -80.5397 113° Southeast 230 265 7,600 1,603 Climbing Atlanta Center
Fri 09:11:53 PM 35.3844 -80.4597 116° Southeast 263 303 8,700 1,600 Climbing Atlanta Center
Fri 09:12:53 PM 35.3572 -80.3819 113° Southeast 271 312 10,800 2,552 Climbing Atlanta Center
Fri 09:14:47 PM 35.3997 -80.1992 74° East 275 316 16,100 2,655 Climbing Washington Center
Fri 09:15:47 PM 35.4283 -80.1039 70° East 289 333 18,500 2,331 Climbing Washington Center
Fri 09:16:48 PM 35.4525 -80.0158 71° East 294 338 20,800 2,231 Climbing Washington Center
Fri 09:17:48 PM 35.4814 -79.9131 71° East 300 345 23,000 2,132 Climbing Washington Center
Fri 09:18:49 PM 35.5100 -79.8072 72° East 307 353 25,100 1,934 Climbing Washington Center
Fri 09:19:49 PM 35.5386 -79.7042 71° East 314 361 26,900 1,900 Climbing Washington Center
Fri 09:20:49 PM 35.5764 -79.5811 69° East 333 383 28,900 1,750 Climbing Washington Center
Fri 09:21:49 PM 35.6047 -79.4753 72° East 343 395 30,400 1,780 Climbing Washington Center
Fri 09:22:47 PM 35.6417 -79.3644 68° East 352 405 32,400 1,866 Climbing Washington Center
Fri 09:23:48 PM 35.6867 -79.2592 62° Northeast 347 399 34,100 1,289 Climbing Washington Center
Fri 09:24:48 PM 35.7297 -79.1461 65° Northeast 352 405 35,000 446 Climbing Washington Center
Fri 09:25:49 PM 35.7792 -79.0253 63° Northeast 369 425 35,000  Level Washington Center
Fri 09:26:47 PM 35.8331 -78.8919 63° Northeast 401 461 35,000  Level Washington Center
Fri 09:27:49 PM 35.8831 -78.7403 68° East 421 484 35,000  Level Washington Center
Fri 09:28:48 PM 35.8956 -78.5842 84° East 438 504 35,000  Level Washington Center
Fri 09:29:49 PM 35.9117 -78.4311 83° East 444 511 35,000  Level Washington Center
Fri 09:30:47 PM 35.9256 -78.2775 84° East 444 511 35,000  Level Washington Center
Fri 09:31:48 PM 35.9394 -78.1267 83° East 444 511 35,000  Level Washington Center
Fri 09:32:49 PM 35.9633 -77.9761 79° East 444 511 35,000  Level Washington Center
Fri 09:33:49 PM 36.0325 -77.8472 56° Northeast 432 497 35,000  Level Washington Center
Fri 09:34:47 PM 36.0997 -77.7206 57° Northeast 432 497 35,000  Level Washington Center
Fri 09:35:49 PM 36.1686 -77.5911 57° Northeast 437 503 35,000  Level Washington Center
Fri 09:36:47 PM 36.2375 -77.4642 56° Northeast 442 509 35,000  Level Washington Center
Fri 09:37:47 PM 36.2933 -77.3494 59° Northeast 442 509 35,000  Level Washington Center
Fri 09:38:48 PM 36.3619 -77.2272 55° Northeast 436 502 35,000  Level Washington Center
Fri 09:39:50 PM 36.4592 -77.1336 38° Northeast 424 488 35,000  Level Washington Center
Fri 09:40:48 PM 36.5622 -77.0556 31° Northeast 424 488 35,000  Level Washington Center
Fri 09:41:48 PM 36.6675 -76.9747 32° Northeast 431 496 35,000  Level Washington Center
Fri 09:42:49 PM 36.7706 -76.8961 31° Northeast 431 496 35,000  Level Washington Center
Fri 09:43:50 PM 36.8758 -76.8175 31° Northeast 436 502 35,000  Level Washington Center
Fri 09:44:49 PM 36.9808 -76.7358 32° Northeast 436 502 35,000  Level Washington Center
Fri 09:45:48 PM 37.0944 -76.6492 31° Northeast 436 502 35,000  Level Washington Center
Fri 09:46:49 PM 37.1972 -76.5697 32° Northeast 436 502 35,000 492 Level Washington Center
Fri 09:47:50 PM 37.3022 -76.4900 31° Northeast 436 502 36,000 1,119 Climbing Washington Center
Fri 09:48:47 PM 37.4008 -76.4050 34° Northeast 436 502 37,200 1,179 Climbing Washington Center
Fri 09:49:47 PM 37.4953 -76.3194 36° Northeast 425 489 38,300 893 Climbing Washington Center
Fri 09:50:48 PM 37.5894 -76.2392 34° Northeast 418 481 39,000 344 Climbing Washington Center
Fri 09:51:49 PM 37.6881 -76.1533 35° Northeast 417 480 39,000  Level Washington Center
Fri 09:52:49 PM 37.7864 -76.0700 34° Northeast 422 486 39,000  Level Washington Center
Fri 09:53:48 PM 37.8847 -75.9811 35° Northeast 422 486 39,000  Level Washington Center
Fri 09:54:49 PM 37.9850 -75.8947 34° Northeast 432 497 39,000  Level Washington Center
Fri 09:55:47 PM 38.0853 -75.8056 35° Northeast 432 497 39,000  Level Washington Center
Fri 09:56:47 PM 38.1836 -75.7186 35° Northeast 432 497 39,000  Level Washington Center
Fri 09:57:49 PM 38.2733 -75.6394 35° Northeast 432 497 39,000  Level Washington Center
Fri 09:58:47 PM 38.3858 -75.5414 34° Northeast 432 497 39,000  Level Washington Center
Fri 09:59:48 PM 38.4858 -75.4564 34° Northeast 432 497 39,000  Level Washington Center
Fri 10:00:48 PM 38.5836 -75.3686 35° Northeast 432 497 39,000  Level Washington Center
Fri 10:01:48 PM 38.6814 -75.2753 37° Northeast 432 497 39,000  Level Washington Center
Fri 10:02:47 PM 38.7811 -75.1894 34° Northeast 432 497 39,000  Level Washington Center
Fri 10:03:47 PM 38.8808 -75.1011 35° Northeast 432 497 39,000  Level Washington Center
Fri 10:04:49 PM 38.9786 -75.0094 36° Northeast 432 497 39,000  Level Washington Center
Fri 10:05:48 PM 39.0781 -74.9206 35° Northeast 427 491 39,000  Level Washington Center
Fri 10:06:49 PM 39.1775 -74.8286 36° Northeast 433 498 39,000  Level Washington Center
Fri 10:07:50 PM 39.2769 -74.7364 36° Northeast 433 498 39,000  Level Washington Center
Fri 10:08:47 PM 39.3722 -74.6467 36° Northeast 433 498 39,000  Level Washington Center
Fri 10:09:47 PM 39.4611 -74.5647 35° Northeast 433 498 39,000 -652 Level Washington Center
Fri 10:11:51 PM 39.6667 -74.3739 36° Northeast 428 493 37,000 -652 Descending New Center
Fri 10:12:51 PM 39.7653 -74.2817 36° Northeast 428 493 37,000  Level New Center
Fri 10:13:51 PM 39.8747 -74.1789 36° Northeast 439 505 37,000  Level New Center
Fri 10:14:51 PM 39.9733 -74.0864 36° Northeast 439 505 37,000  Level New Center
Fri 10:15:51 PM 40.0694 -73.9986 35° Northeast 439 505 37,000  Level New Center
Fri 10:16:51 PM 40.1658 -73.9053 36° Northeast 439 505 37,000  Level New Center
Fri 10:17:51 PM 40.2619 -73.8119 37° Northeast 439 505 37,000 -500 Level New Center
Fri 10:18:51 PM 40.3622 -73.7236 34° Northeast 439 505 36,000 -2,300 Descending New Center
Fri 10:19:51 PM 40.4561 -73.6322 37° Northeast 433 498 32,400 -3,318 Descending New Center
Fri 10:21:50 PM 40.6306 -73.4600 37° Northeast 442 509 26,100 -3,051 Descending Boston Center
Fri 10:22:48 PM 40.7272 -73.3658 36° Northeast 435 501 23,400 -1,563 Descending Boston Center
Fri 10:23:49 PM 40.8303 -73.2656 36° Northeast 429 494 23,000 -927 Descending Boston Center
Fri 10:24:51 PM 40.9142 -73.1653 42° Northeast 416 479 21,500 -1,866 Descending Boston Center
Fri 10:25:48 PM 40.9961 -73.0669 42° Northeast 398 458 19,300 -2,168 Descending Boston Center
Fri 10:26:50 PM 41.0675 -72.9853 41° Northeast 383 441 17,200 -2,049 Descending Boston Center
Fri 10:27:51 PM 41.1386 -72.9003 42° Northeast 367 422 15,100 -1,109 Descending Boston Center
Fri 10:28:49 PM 41.2119 -72.8153 41° Northeast 345 397 15,000 -50 Descending Boston Center
Fri 10:29:50 PM 41.2914 -72.7219 41° Northeast 337 388 15,000  Level Boston Center
Fri 10:30:50 PM 41.3706 -72.6558 32° Northeast 350 403 15,000  Level Boston Center
Fri 10:31:51 PM 41.4686 -72.5731 32° Northeast 371 427 15,000  Level Boston Center
Fri 10:32:26 PM 41.5167 -72.5289 35° Northeast 380 437 15,000  Level Boston Center
Fri 10:32:51 PM 41.5583 -72.4956 31° Northeast 371 427 15,000 -929 Level Boston Center
Fri 10:33:50 PM 41.6458 -72.4233 32° Northeast 376 433 13,700 -1,412 Descending Boston Center
Fri 10:33:59 PM 41.6542 -72.4122 45° Northeast 380 437 13,400 -2,237 Descending Boston Center
Fri 10:34:49 PM 41.7292 -72.3539 30° Northeast 359 413 11,500 -2,123 Descending Boston Center
Fri 10:35:04 PM 41.7481 -72.3372 33° Northeast 344 396 11,100 -1,424 Descending Boston Center
Fri 10:35:48 PM 41.8083 -72.2814 35° Northeast 348 400 10,100 -1,065 Descending Boston Center
Fri 10:36:06 PM 41.8314 -72.2644 29° Northeast 344 396 10,000 -97 Descending Boston Center
Fri 10:36:50 PM 41.8875 -72.2142 34° Northeast 342 394 10,000  Level Boston Center
Fri 10:37:05 PM 41.9083 -72.2003 26° Northeast 334 384 10,000  Level Boston Center
Fri 10:37:48 PM 41.9664 -72.1469 34° Northeast 342 394 10,000  Level Boston Center
Fri 10:38:07 PM 41.9894 -72.1300 29° Northeast 339 390 10,000 -75 Level Boston Center
Fri 10:39:08 PM 42.0600 -72.0681 33° Northeast 288 331 9,900 -641 Descending Boston Center
Fri 10:39:50 PM 42.1078 -72.0258 33° Northeast 304 350 8,900 -1,529 Descending Boston Center
Fri 10:40:50 PM 42.1681 -71.9611 39° Northeast 274 315 7,300 -1,412 Descending Boston Center
Fri 10:41:49 PM 42.2178 -71.9019 41° Northeast 263 303 6,100 -1,150 Descending Boston Center
Fri 10:42:50 PM 42.2800 -71.8367 38° Northeast 257 296 5,000 -541 Descending Boston Center
Fri 10:43:51 PM 42.3297 -71.7803 40° Northeast 251 289 5,000 -203 Level Boston Center
Fri 10:44:48 PM 42.3897 -71.7119 40° Northeast 252 290 4,600 -667 Descending Boston Center
Fri 10:45:48 PM 42.4394 -71.6525 41° Northeast 252 290 3,700 -978 Descending Boston Center
Fri 10:46:20 PM 42.4667 -71.6167 44° Northeast 234 269 3,100 -1,043 Descending KA90
Fri 10:47:20 PM 42.5000 -71.5500 56° Northeast 215 247 2,100 -550 Descending KA90
Fri 10:48:20 PM 42.4833 -71.4833 109° East 177 204 2,000 -50 Descending KA90
Fri 10:49:20 PM 42.4833 -71.4333 90° East 129 148 2,000 -250 Level KA90
Fri 10:50:20 PM 42.4833 -71.3833 90° East 101 116 1,500 -522 Descending KA90
Fri 10:51:15 PM 42.4833 -71.3500 90° East 109 125 1,000 -486 Descending KA90
Fri 10:52:48 PM 42.4717 -71.2944 106° East 106 122 300 -452 Descending Boston Center
Fri 10:54:00 PM 42.4667 -71.2833 66° East  Level FlightAware

Login

Don't have an account? Register now (free) for customized features, flight alerts, and more!